Spring Lake, North Carolina
Current Conditions -  °F | °C
As of 6:58 AM on Thursday 29 Jan 2015 (Local Time) from KPOB Reporting Station
Clear Clear  
Wind Chill: 22°   Ceiling: Unl
Heat Index: 22°   Visibility: 10mi
Dew Point: 19°   Wind: 0mph
Humidity: 87%   Direction: NA
Pressure: 30.37"   Gusts: NA
Location:  35.17°N, 78.97°W
Report Text: KPOB 291158Z AUTO 00000KT 10SM CLR M05/M07 A3037 RMK AO2 SLP290 T10551073 11039 21059 53008
Loading
Personal Weather Stations






























Interactive Weather Map New forecast layout! Learn more

10-Day Weather Forecast

Advertisements
Track Severe Weather on mobile